Alexis, Illinois
Current Conditions -  °F | °C
As of 4:35 PM on Monday 22 Dec 2014 (Local Time) from KGBG Reporting Station
Haze Haze  
Wind Chill: 36°   Ceiling: 200
Heat Index: 40°   Visibility: 1.2mi
Dew Point: 40°   Wind: 6mph
Humidity: 99%   Direction: 110°ESE
Pressure: 29.56"   Gusts: NA
Location:  41.06°N, 90.56°W
Report Text: KGBG 222235Z AUTO 11005KT 1 1/4SM BR OVC002 05/05 A2956 RMK AO2 T00460045
Loading
Personal Weather Stations






























Interactive Weather Map New forecast layout! Learn more

10-Day Weather Forecast

Advertisements
Track Severe Weather on mobile